Time;durP1;ratioP1;P1;durP2;ratioP2;P2;SDS_P1;SDS_P2;PMS_P1;PMS_P2;Temp;Humidity;BMP_temperature;BMP_pressure;BME280_temperature;BME280_humidity;BME280_pressure;Samples;Min_cycle;Max_cycle;Signal;HPM_P1;HPM_P2
2023/01/21 00:01:44;;;;;;;;;;;;;;;;;;5032592;28;21311;-63
2023/01/21 00:04:09;;;;;;;;;;;;;;;;;;5037374;28;20043;-62
2023/01/21 00:06:35;;;;;;;;;;;;;;;;;;5034273;28;19966;-62
2023/01/21 00:09:01;;;;;;;;;;;;;;;;;;5049671;28;20476;-62
2023/01/21 00:11:27;;;;;;;;;;;;;;;;;;5034048;28;19946;-62
2023/01/21 00:13:54;;;;;;;;;;;;;;;;;;5022932;28;20012;-63
2023/01/21 00:16:20;;;;;;;;;;;;;;;;;;5038927;28;19917;-63
2023/01/21 00:18:46;;;;;;;;;;;;;;;;;;5049268;28;19928;-62
2023/01/21 00:21:14;;;;;;;;;;;;;;;;;;5040897;28;20544;-63
2023/01/21 00:23:40;;;;;;;;;;;;;;;;;;5030512;28;19929;-62
2023/01/21 00:26:05;;;;;;;;;;;;;;;;;;5041344;28;20364;-62
2023/01/21 00:28:33;;;;;;;;;;;;;;;;;;5045362;28;19924;-62
2023/01/21 00:30:59;;;;;;;;;;;;;;;;;;5019592;28;19916;-62
2023/01/21 00:33:24;;;;;;;;;;;;;;;;;;5281540;22;20089;-60
2023/01/21 00:35:50;;;;;;;;;;;;;;;;;;5018201;28;19950;-60
2023/01/21 00:38:15;;;;;;;;;;;;;;;;;;5020393;28;19921;-59
2023/01/21 00:40:43;;;;;;;;;;;;;;;;;;5002918;28;20093;-60
2023/01/21 00:43:13;;;;;;;;;;;;;;;;;;5018592;28;19921;-60
2023/01/21 00:45:41;;;;;;;;;;;;;;;;;;5019633;28;19975;-60
2023/01/21 00:48:06;;;;;;;;;;;;;;;;;;5017930;28;19928;-60
2023/01/21 00:50:31;;;;;;;;;;;;;;;;;;5018622;28;20364;-60
2023/01/21 00:52:57;;;;;;;;;;;;;;;;;;5017313;28;20585;-60
2023/01/21 00:55:24;;;;;;;;;;;;;;;;;;5021098;28;19917;-59
2023/01/21 00:57:51;;;;;;;;;;;;;;;;;;5016108;28;19927;-59
2023/01/21 01:00:17;;;;;;;;;;;;;;;;;;5018826;28;19966;-59
2023/01/21 01:02:42;;;;;;;;;;;;;;;;;;5016729;28;19917;-59
2023/01/21 01:05:07;;;;;;;;;;;;;;;;;;5019768;28;19921;-59
2023/01/21 01:07:33;;;;;;;;;;;;;;;;;;5014667;28;19959;-59
2023/01/21 01:09:59;;;;;;;;;;;;;;;;;;5016170;28;19920;-59
2023/01/21 01:12:24;;;;;;;;;;;;;;;;;;5015388;28;20498;-58
2023/01/21 01:14:51;;;;;;;;;;;;;;;;;;5017661;28;19924;-58
2023/01/21 01:17:17;;;;;;;;;;;;;;;;;;5017003;28;19952;-60
2023/01/21 01:19:43;;;;;;;;;;;;;;;;;;5015197;28;20159;-60
2023/01/21 01:22:09;;;;;;;;;;;;;;;;;;5019168;28;19921;-60
2023/01/21 01:24:36;;;;;;;;;;;;;;;;;;5015861;28;19921;-59
2023/01/21 01:27:04;;;;;;;;;;;;;;;;;;5016665;28;19955;-58
2023/01/21 01:29:29;;;;;;;;;;;;;;;;;;5015009;28;20411;-58
2023/01/21 01:31:55;;;;;;;;;;;;;;;;;;5014191;28;19983;-57
2023/01/21 01:34:20;;;;;;;;;;;;;;;;;;5007916;28;19971;-58
2023/01/21 01:36:46;;;;;;;;;;;;;;;;;;4977473;28;19955;-58
2023/01/21 01:39:24;;;;;;;;;;;;;;;;;;4988725;28;19921;-58
2023/01/21 01:41:49;;;;;;;;;;;;;;;;;;4980227;28;19917;-58
2023/01/21 01:44:20;;;;;;;;;;;;;;;;;;4999130;28;20437;-59
2023/01/21 01:46:47;;;;;;;;;;;;;;;;;;4993276;28;19968;-58
2023/01/21 01:49:15;;;;;;;;;;;;;;;;;;5001341;28;19973;-57
2023/01/21 01:51:45;;;;;;;;;;;;;;;;;;5001331;28;20279;-57
2023/01/21 01:54:13;;;;;;;;;;;;;;;;;;5001773;28;20240;-62
2023/01/21 01:56:41;;;;;;;;;;;;;;;;;;4980709;28;20816;-57
2023/01/21 01:59:06;;;;;;;;;;;;;;;;;;4998981;28;19921;-58
2023/01/21 02:01:34;;;;;;;;;;;;;;;;;;4992132;28;20656;-58
2023/01/21 02:04:00;;;;;;;;;;;;;;;;;;5002225;28;19978;-57
2023/01/21 02:06:31;;;;;;;;;;;;;;;;;;5001527;28;19921;-57
2023/01/21 02:08:58;;;;;;;;;;;;;;;;;;5009050;28;19949;-57
2023/01/21 02:11:24;;;;;;;;;;;;;;;;;;5002633;28;19921;-56
2023/01/21 02:13:49;;;;;;;;;;;;;;;;;;5001600;28;19917;-56
2023/01/21 02:16:15;;;;;;;;;;;;;;;;;;5000588;28;19921;-57
2023/01/21 02:18:41;;;;;;;;;;;;;;;;;;5015416;28;19917;-57
2023/01/21 02:21:09;;;;;;;;;;;;;;;;;;5000991;28;19921;-57
2023/01/21 02:23:34;;;;;;;;;;;;;;;;;;4976375;28;19928;-58
2023/01/21 02:26:02;;;;;;;;;;;;;;;;;;4998539;28;20791;-56
2023/01/21 02:28:28;;;;;;;;;;;;;;;;;;4997324;28;19980;-56
2023/01/21 02:30:53;;;;;;;;;;;;;;;;;;4984518;28;19921;-56
2023/01/21 02:33:21;;;;;;;;;;;;;;;;;;5003050;28;19928;-56
2023/01/21 02:35:49;;;;;;;;;;;;;;;;;;5000367;28;20483;-56
2023/01/21 02:38:16;;;;;;;;;;;;;;;;;;5002428;28;19921;-56
2023/01/21 02:40:42;;;;;;;;;;;;;;;;;;4977395;28;20766;-55
2023/01/21 02:43:10;;;;;;;;;;;;;;;;;;5000596;28;19921;-57
2023/01/21 02:45:39;;;;;;;;;;;;;;;;;;4999569;28;20503;-58
2023/01/21 02:48:07;;;;;;;;;;;;;;;;;;5013931;28;19940;-56
2023/01/21 02:50:34;;;;;;;;;;;;;;;;;;5000820;28;19938;-56
2023/01/21 02:53:02;;;;;;;;;;;;;;;;;;5001222;28;19921;-57
2023/01/21 02:55:27;;;;;;;;;;;;;;;;;;4987147;28;19960;-55
2023/01/21 02:57:53;;;;;;;;;;;;;;;;;;4978725;28;19921;-58
2023/01/21 03:00:20;;;;;;;;;;;;;;;;;;5010286;28;20503;-57
2023/01/21 03:02:48;;;;;;;;;;;;;;;;;;5003567;28;19927;-57
2023/01/21 03:05:16;;;;;;;;;;;;;;;;;;5001865;28;20020;-57
2023/01/21 03:07:44;;;;;;;;;;;;;;;;;;5003444;28;19925;-57
2023/01/21 03:10:10;;;;;;;;;;;;;;;;;;4997072;28;20356;-58
2023/01/21 03:12:36;;;;;;;;;;;;;;;;;;5004327;28;19921;-58
2023/01/21 03:17:48;;;;;;;;;;;;;;;;;;5001761;28;19940;-58
2023/01/21 03:23:35;;;;;;;;;;;;;;;;;;5003880;28;20012;-55
2023/01/21 03:26:00;;;;;;;;;;;;;;;;;;4997416;28;19921;-55
2023/01/21 03:28:28;;;;;;;;;;;;;;;;;;4999923;28;19921;-58
2023/01/21 03:30:56;;;;;;;;;;;;;;;;;;5001694;28;19972;-55
2023/01/21 03:33:21;;;;;;;;;;;;;;;;;;5003559;28;20402;-55
2023/01/21 03:35:47;;;;;;;;;;;;;;;;;;5012287;28;20180;-56
2023/01/21 03:38:15;;;;;;;;;;;;;;;;;;4997874;28;19917;-56
2023/01/21 03:40:41;;;;;;;;;;;;;;;;;;5002349;28;19923;-57
2023/01/21 03:43:06;;;;;;;;;;;;;;;;;;5001437;28;19921;-56
2023/01/21 03:45:32;;;;;;;;;;;;;;;;;;5002499;28;19921;-55
2023/01/21 03:51:16;;;;;;;;;;;;;;;;;;5001906;28;19963;-57
2023/01/21 03:53:42;;;;;;;;;;;;;;;;;;4997304;28;19925;-57
2023/01/21 03:56:12;;;;;;;;;;;;;;;;;;4981606;28;20388;-57
2023/01/21 03:58:40;;;;;;;;;;;;;;;;;;5010701;28;20709;-57
2023/01/21 04:01:05;;;;;;;;;;;;;;;;;;5000134;28;19917;-57
2023/01/21 04:03:31;;;;;;;;;;;;;;;;;;5000682;28;20348;-57
2023/01/21 04:05:58;;;;;;;;;;;;;;;;;;5003034;28;19928;-58
2023/01/21 04:08:24;;;;;;;;;;;;;;;;;;4997090;28;20380;-57
2023/01/21 04:10:49;;;;;;;;;;;;;;;;;;5013747;28;19921;-57
2023/01/21 04:13:15;;;;;;;;;;;;;;;;;;4998788;28;20029;-58
2023/01/21 04:15:40;;;;;;;;;;;;;;;;;;5001709;28;19948;-56
2023/01/21 04:18:05;;;;;;;;;;;;;;;;;;5001902;28;19918;-55
2023/01/21 04:20:31;;;;;;;;;;;;;;;;;;5003299;28;20571;-58
2023/01/21 04:22:57;;;;;;;;;;;;;;;;;;5002665;28;19952;-57
2023/01/21 04:28:41;;;;;;;;;;;;;;;;;;4999205;28;19971;-60
2023/01/21 04:31:06;;;;;;;;;;;;;;;;;;5000022;28;20606;-57
2023/01/21 04:33:34;;;;;;;;;;;;;;;;;;5003439;28;20143;-56
2023/01/21 04:36:02;;;;;;;;;;;;;;;;;;5003125;28;20520;-57
2023/01/21 04:38:29;;;;;;;;;;;;;;;;;;4980322;28;19932;-58
2023/01/21 04:40:55;;;;;;;;;;;;;;;;;;5003208;28;19980;-57
2023/01/21 04:43:23;;;;;;;;;;;;;;;;;;5001548;28;19975;-59
2023/01/21 04:45:51;;;;;;;;;;;;;;;;;;5011399;28;19928;-57
2023/01/21 04:48:16;;;;;;;;;;;;;;;;;;5002134;28;19928;-57
2023/01/21 04:50:42;;;;;;;;;;;;;;;;;;5000342;28;19921;-57
2023/01/21 04:53:09;;;;;;;;;;;;;;;;;;4987177;28;19917;-58
2023/01/21 04:55:35;;;;;;;;;;;;;;;;;;5001408;28;19928;-58
2023/01/21 04:58:00;;;;;;;;;;;;;;;;;;5011551;28;19917;-57
2023/01/21 05:00:26;;;;;;;;;;;;;;;;;;4996456;28;19931;-57
2023/01/21 05:02:51;;;;;;;;;;;;;;;;;;4999801;28;19924;-58
2023/01/21 05:05:17;;;;;;;;;;;;;;;;;;5002514;28;19913;-58
2023/01/21 05:07:42;;;;;;;;;;;;;;;;;;5002168;28;20476;-58
2023/01/21 05:10:08;;;;;;;;;;;;;;;;;;5000850;28;20194;-58
2023/01/21 05:12:34;;;;;;;;;;;;;;;;;;5001129;28;19968;-57
2023/01/21 05:15:04;;;;;;;;;;;;;;;;;;5000742;28;19921;-56
2023/01/21 05:17:29;;;;;;;;;;;;;;;;;;5016436;28;19921;-58
2023/01/21 05:19:55;;;;;;;;;;;;;;;;;;5000606;28;20579;-58
2023/01/21 05:22:20;;;;;;;;;;;;;;;;;;5002391;28;19921;-58
2023/01/21 05:24:48;;;;;;;;;;;;;;;;;;5001240;28;20308;-56
2023/01/21 05:27:14;;;;;;;;;;;;;;;;;;5002743;28;19925;-57
2023/01/21 05:32:56;;;;;;;;;;;;;;;;;;5000316;28;20007;-57
2023/01/21 05:35:25;;;;;;;;;;;;;;;;;;5001189;28;19925;-58
2023/01/21 05:37:53;;;;;;;;;;;;;;;;;;4999107;28;19971;-57
2023/01/21 05:40:19;;;;;;;;;;;;;;;;;;5001535;28;20123;-57
2023/01/21 05:42:44;;;;;;;;;;;;;;;;;;4992118;28;19925;-57
2023/01/21 05:45:10;;;;;;;;;;;;;;;;;;4999632;28;20235;-57
2023/01/21 05:47:35;;;;;;;;;;;;;;;;;;4977723;28;20023;-58
2023/01/21 05:52:47;;;;;;;;;;;;;;;;;;5002088;28;20027;-58
2023/01/21 05:55:15;;;;;;;;;;;;;;;;;;4998975;28;21543;-58
2023/01/21 05:57:41;;;;;;;;;;;;;;;;;;5000168;28;19925;-57
2023/01/21 06:00:08;;;;;;;;;;;;;;;;;;4989669;28;19979;-57
2023/01/21 06:02:34;;;;;;;;;;;;;;;;;;5012044;28;19921;-57
2023/01/21 06:05:02;;;;;;;;;;;;;;;;;;4997959;28;19980;-55
2023/01/21 06:07:29;;;;;;;;;;;;;;;;;;5000759;28;19971;-56
2023/01/21 06:09:55;;;;;;;;;;;;;;;;;;5002154;28;19921;-58
2023/01/21 06:15:37;;;;;;;;;;;;;;;;;;5001209;28;19927;-59
2023/01/21 06:18:02;;;;;;;;;;;;;;;;;;5010118;28;19917;-56
2023/01/21 06:20:30;;;;;;;;;;;;;;;;;;4997466;28;19947;-57
2023/01/21 06:22:55;;;;;;;;;;;;;;;;;;4994201;28;19922;-58
2023/01/21 06:25:23;;;;;;;;;;;;;;;;;;4998386;28;19925;-57
2023/01/21 06:27:49;;;;;;;;;;;;;;;;;;4999951;28;19928;-58
2023/01/21 06:30:15;;;;;;;;;;;;;;;;;;4997312;28;20370;-57
2023/01/21 06:32:40;;;;;;;;;;;;;;;;;;5003136;28;19917;-58
2023/01/21 06:35:06;;;;;;;;;;;;;;;;;;5003484;28;20478;-57
2023/01/21 06:37:32;;;;;;;;;;;;;;;;;;4999253;28;20103;-58
2023/01/21 06:40:00;;;;;;;;;;;;;;;;;;5002281;28;19925;-57
2023/01/21 06:42:28;;;;;;;;;;;;;;;;;;5004240;28;20093;-56
2023/01/21 06:44:53;;;;;;;;;;;;;;;;;;5003052;28;19921;-56
2023/01/21 06:47:21;;;;;;;;;;;;;;;;;;5013480;28;19976;-56
2023/01/21 06:49:47;;;;;;;;;;;;;;;;;;5004214;28;20487;-59
2023/01/21 06:52:14;;;;;;;;;;;;;;;;;;5003455;28;20190;-56
2023/01/21 06:54:40;;;;;;;;;;;;;;;;;;4980497;28;20281;-57
2023/01/21 06:57:05;;;;;;;;;;;;;;;;;;5004299;28;19921;-57
2023/01/21 06:59:30;;;;;;;;;;;;;;;;;;5001595;28;20041;-56
2023/01/21 07:01:58;;;;;;;;;;;;;;;;;;4999495;28;20100;-56
2023/01/21 07:04:23;;;;;;;;;;;;;;;;;;5000577;28;20765;-57
2023/01/21 07:06:49;;;;;;;;;;;;;;;;;;5000285;28;20258;-57
2023/01/21 07:09:14;;;;;;;;;;;;;;;;;;4999940;28;20799;-58
2023/01/21 07:11:39;;;;;;;;;;;;;;;;;;5000337;28;19932;-59
2023/01/21 07:14:08;;;;;;;;;;;;;;;;;;5004797;28;19921;-57
2023/01/21 07:16:36;;;;;;;;;;;;;;;;;;4986171;28;19921;-58
2023/01/21 07:19:04;;;;;;;;;;;;;;;;;;5002293;28;19917;-57
2023/01/21 07:21:32;;;;;;;;;;;;;;;;;;5002793;28;19964;-57
2023/01/21 07:24:00;;;;;;;;;;;;;;;;;;5002483;28;19932;-57
2023/01/21 07:26:26;;;;;;;;;;;;;;;;;;4993474;28;20423;-58
2023/01/21 07:28:53;;;;;;;;;;;;;;;;;;5000873;28;19990;-58
2023/01/21 07:31:21;;;;;;;;;;;;;;;;;;5001980;28;21557;-58
2023/01/21 07:33:49;;;;;;;;;;;;;;;;;;5001691;28;20012;-56
2023/01/21 07:36:14;;;;;;;;;;;;;;;;;;5002220;28;19992;-56
2023/01/21 07:38:42;;;;;;;;;;;;;;;;;;4997835;28;19917;-57
2023/01/21 07:41:07;;;;;;;;;;;;;;;;;;4995340;28;19932;-58
2023/01/21 07:43:33;;;;;;;;;;;;;;;;;;5003000;28;19983;-56
2023/01/21 07:45:58;;;;;;;;;;;;;;;;;;5003571;28;19928;-58
2023/01/21 07:48:27;;;;;;;;;;;;;;;;;;4987929;28;19926;-58
2023/01/21 07:50:56;;;;;;;;;;;;;;;;;;5000048;28;19921;-58
2023/01/21 07:53:24;;;;;;;;;;;;;;;;;;5002615;28;19917;-59
2023/01/21 07:55:51;;;;;;;;;;;;;;;;;;4999719;28;20786;-55
2023/01/21 07:58:19;;;;;;;;;;;;;;;;;;5002370;28;19920;-58
2023/01/21 08:00:45;;;;;;;;;;;;;;;;;;4997620;28;19971;-58
2023/01/21 08:03:10;;;;;;;;;;;;;;;;;;4997270;28;20008;-58
2023/01/21 08:05:38;;;;;;;;;;;;;;;;;;5000192;28;19921;-58
2023/01/21 08:08:06;;;;;;;;;;;;;;;;;;5000777;28;19921;-58
2023/01/21 08:10:31;;;;;;;;;;;;;;;;;;4999683;28;20353;-55
2023/01/21 08:13:00;;;;;;;;;;;;;;;;;;5010845;28;20252;-57
2023/01/21 08:15:26;;;;;;;;;;;;;;;;;;4994752;28;20107;-58
2023/01/21 08:17:51;;;;;;;;;;;;;;;;;;5000618;28;19930;-58
2023/01/21 08:20:19;;;;;;;;;;;;;;;;;;5002291;28;20431;-58
2023/01/21 08:22:47;;;;;;;;;;;;;;;;;;5001253;28;19928;-57
2023/01/21 08:25:15;;;;;;;;;;;;;;;;;;4998240;28;19921;-57
2023/01/21 08:27:45;;;;;;;;;;;;;;;;;;4998220;28;19926;-56
2023/01/21 08:30:13;;;;;;;;;;;;;;;;;;4992122;28;20232;-58
2023/01/21 08:32:38;;;;;;;;;;;;;;;;;;4981128;28;19956;-58
2023/01/21 08:35:04;;;;;;;;;;;;;;;;;;4993885;28;19925;-60
2023/01/21 08:37:32;;;;;;;;;;;;;;;;;;4987668;28;20405;-58
2023/01/21 08:39:57;;;;;;;;;;;;;;;;;;4999525;28;20511;-59
2023/01/21 08:42:23;;;;;;;;;;;;;;;;;;4985110;28;20289;-58
2023/01/21 08:44:52;;;;;;;;;;;;;;;;;;5001760;28;20043;-59
2023/01/21 08:47:20;;;;;;;;;;;;;;;;;;5000005;28;21260;-59
2023/01/21 08:49:46;;;;;;;;;;;;;;;;;;5000643;28;19921;-59
2023/01/21 08:52:15;;;;;;;;;;;;;;;;;;4996401;28;20045;-58
2023/01/21 08:54:41;;;;;;;;;;;;;;;;;;4999806;28;19917;-59
2023/01/21 08:57:09;;;;;;;;;;;;;;;;;;5010158;28;20418;-58
2023/01/21 08:59:34;;;;;;;;;;;;;;;;;;5000336;28;19927;-59
2023/01/21 09:02:02;;;;;;;;;;;;;;;;;;5002918;28;20473;-57
2023/01/21 09:04:28;;;;;;;;;;;;;;;;;;4999769;28;19921;-58
2023/01/21 09:06:53;;;;;;;;;;;;;;;;;;5003819;28;19971;-58
2023/01/21 09:09:21;;;;;;;;;;;;;;;;;;4999249;28;20410;-58
2023/01/21 09:11:47;;;;;;;;;;;;;;;;;;4997874;28;20015;-59
2023/01/21 09:14:12;;;;;;;;;;;;;;;;;;5000917;28;19920;-58
2023/01/21 09:16:37;;;;;;;;;;;;;;;;;;4999292;28;19956;-58
2023/01/21 09:19:04;;;;;;;;;;;;;;;;;;5001223;28;20047;-58
2023/01/21 09:21:29;;;;;;;;;;;;;;;;;;5000350;28;20357;-58
2023/01/21 09:23:55;;;;;;;;;;;;;;;;;;5000583;28;19921;-58
2023/01/21 09:26:20;;;;;;;;;;;;;;;;;;4999035;28;19917;-58
2023/01/21 09:28:48;;;;;;;;;;;;;;;;;;4992019;28;20324;-59
2023/01/21 09:31:14;;;;;;;;;;;;;;;;;;4997903;28;19964;-59
2023/01/21 09:33:44;;;;;;;;;;;;;;;;;;4999166;28;19928;-57
2023/01/21 09:36:10;;;;;;;;;;;;;;;;;;5001312;28;19992;-59
2023/01/21 09:38:38;;;;;;;;;;;;;;;;;;4998943;28;20018;-60
2023/01/21 09:41:08;;;;;;;;;;;;;;;;;;4993282;28;19975;-58
2023/01/21 09:43:34;;;;;;;;;;;;;;;;;;4997670;28;20372;-58
2023/01/21 09:46:00;;;;;;;;;;;;;;;;;;5010687;28;19924;-59
2023/01/21 09:48:25;;;;;;;;;;;;;;;;;;4999437;28;19929;-60
2023/01/21 09:50:51;;;;;;;;;;;;;;;;;;4998282;28;19921;-59
2023/01/21 09:53:18;;;;;;;;;;;;;;;;;;5011826;28;19980;-59
2023/01/21 09:55:46;;;;;;;;;;;;;;;;;;4999023;28;19929;-59
2023/01/21 09:58:11;;;;;;;;;;;;;;;;;;4999973;28;20962;-59
2023/01/21 10:00:39;;;;;;;;;;;;;;;;;;4980837;28;19975;-60
2023/01/21 10:03:05;;;;;;;;;;;;;;;;;;4999432;28;19950;-58
2023/01/21 10:05:31;;;;;;;;;;;;;;;;;;4998474;28;20419;-58
2023/01/21 10:07:56;;;;;;;;;;;;;;;;;;5012909;28;19929;-58
2023/01/21 10:10:24;;;;;;;;;;;;;;;;;;5014652;28;19928;-59
2023/01/21 10:12:53;;;;;;;;;;;;;;;;;;5005851;28;19917;-59
2023/01/21 10:15:21;;;;;;;;;;;;;;;;;;4997157;28;19928;-59
2023/01/21 10:17:52;;;;;;;;;;;;;;;;;;5002544;28;19931;-59
2023/01/21 10:20:17;;;;;;;;;;;;;;;;;;5002647;28;20347;-59
2023/01/21 10:22:44;;;;;;;;;;;;;;;;;;4985354;28;19921;-60
2023/01/21 10:25:10;;;;;;;;;;;;;;;;;;5013931;28;19964;-60
2023/01/21 10:27:37;;;;;;;;;;;;;;;;;;5003164;28;19932;-60
2023/01/21 10:30:03;;;;;;;;;;;;;;;;;;5001314;28;19921;-60
2023/01/21 10:32:29;;;;;;;;;;;;;;;;;;5004006;28;20353;-60
2023/01/21 10:34:54;;;;;;;;;;;;;;;;;;5002215;28;19925;-60
2023/01/21 10:37:22;;;;;;;;;;;;;;;;;;5003457;28;19948;-60
2023/01/21 10:39:53;;;;;;;;;;;;;;;;;;5003615;28;19917;-60
2023/01/21 10:42:22;;;;;;;;;;;;;;;;;;5003185;28;20315;-58
2023/01/21 10:44:47;;;;;;;;;;;;;;;;;;5004220;28;19960;-58
2023/01/21 10:47:15;;;;;;;;;;;;;;;;;;5002120;28;19960;-58
2023/01/21 10:49:40;;;;;;;;;;;;;;;;;;4986537;28;19920;-58
2023/01/21 10:52:05;;;;;;;;;;;;;;;;;;5011531;28;19921;-58
2023/01/21 10:54:31;;;;;;;;;;;;;;;;;;4996933;28;20862;-59
2023/01/21 10:56:56;;;;;;;;;;;;;;;;;;5005446;28;19971;-60
2023/01/21 10:59:29;;;;;;;;;;;;;;;;;;4999688;28;19928;-59
2023/01/21 11:01:59;;;;;;;;;;;;;;;;;;5003950;28;19924;-58
2023/01/21 11:04:25;;;;;;;;;;;;;;;;;;5001662;28;19917;-58
2023/01/21 11:06:50;;;;;;;;;;;;;;;;;;4999835;28;19944;-58
2023/01/21 11:09:15;;;;;;;;;;;;;;;;;;5003988;28;20032;-58
2023/01/21 11:11:41;;;;;;;;;;;;;;;;;;5002335;28;20218;-58
2023/01/21 11:14:07;;;;;;;;;;;;;;;;;;4996699;28;20075;-58
2023/01/21 11:16:32;;;;;;;;;;;;;;;;;;5013533;28;19939;-59
2023/01/21 11:18:57;;;;;;;;;;;;;;;;;;5001048;28;20102;-59
2023/01/21 11:21:23;;;;;;;;;;;;;;;;;;5003920;28;19929;-59
2023/01/21 11:23:48;;;;;;;;;;;;;;;;;;4995022;28;20498;-58
2023/01/21 11:26:14;;;;;;;;;;;;;;;;;;5000348;28;20530;-58
2023/01/21 11:28:41;;;;;;;;;;;;;;;;;;4979623;28;19931;-58
2023/01/21 11:31:07;;;;;;;;;;;;;;;;;;4996710;28;19925;-59
2023/01/21 11:33:35;;;;;;;;;;;;;;;;;;4998782;28;20300;-59
2023/01/21 11:36:03;;;;;;;;;;;;;;;;;;5000230;28;20411;-59
2023/01/21 11:38:32;;;;;;;;;;;;;;;;;;4991791;28;20392;-59
2023/01/21 11:41:00;;;;;;;;;;;;;;;;;;4997212;28;19956;-59
2023/01/21 11:43:25;;;;;;;;;;;;;;;;;;4977875;28;19924;-57
2023/01/21 11:45:54;;;;;;;;;;;;;;;;;;5010472;28;19932;-59
2023/01/21 11:48:19;;;;;;;;;;;;;;;;;;4999135;28;19974;-58
2023/01/21 11:50:48;;;;;;;;;;;;;;;;;;4996846;28;20015;-58
2023/01/21 11:53:17;;;;;;;;;;;;;;;;;;4999821;28;21390;-60
2023/01/21 11:55:42;;;;;;;;;;;;;;;;;;4999062;28;20355;-60
2023/01/21 11:58:08;;;;;;;;;;;;;;;;;;4998453;28;21693;-60
2023/01/21 12:00:33;;;;;;;;;;;;;;;;;;4995561;28;19944;-60
2023/01/21 12:02:59;;;;;;;;;;;;;;;;;;5000747;28;19917;-59
2023/01/21 12:05:25;;;;;;;;;;;;;;;;;;5004430;28;19921;-59
2023/01/21 12:07:53;;;;;;;;;;;;;;;;;;5002289;28;19921;-62
2023/01/21 12:10:21;;;;;;;;;;;;;;;;;;4995733;28;19974;-59
2023/01/21 12:12:47;;;;;;;;;;;;;;;;;;5002737;28;19921;-59
2023/01/21 12:15:12;;;;;;;;;;;;;;;;;;5000420;28;20459;-61
2023/01/21 12:17:40;;;;;;;;;;;;;;;;;;5000221;28;19921;-60
2023/01/21 12:20:10;;;;;;;;;;;;;;;;;;5002789;28;19932;-61
2023/01/21 12:22:35;;;;;;;;;;;;;;;;;;4996637;28;19971;-61
2023/01/21 12:25:01;;;;;;;;;;;;;;;;;;4979941;28;19921;-62
2023/01/21 12:27:26;;;;;;;;;;;;;;;;;;5002018;28;20417;-61
2023/01/21 12:29:54;;;;;;;;;;;;;;;;;;4992696;28;19960;-61
2023/01/21 12:32:20;;;;;;;;;;;;;;;;;;5000026;28;19925;-61
2023/01/21 12:34:45;;;;;;;;;;;;;;;;;;5002040;28;20130;-61
2023/01/21 12:37:10;;;;;;;;;;;;;;;;;;4998986;28;20004;-62
2023/01/21 12:39:38;;;;;;;;;;;;;;;;;;5000250;28;20298;-62
2023/01/21 12:42:03;;;;;;;;;;;;;;;;;;5003459;28;19933;-61
2023/01/21 12:44:29;;;;;;;;;;;;;;;;;;4993990;28;19917;-61
2023/01/21 12:47:02;;;;;;;;;;;;;;;;;;5008101;28;19987;-63
2023/01/21 12:49:27;;;;;;;;;;;;;;;;;;5003021;28;19945;-61
2023/01/21 12:51:55;;;;;;;;;;;;;;;;;;4982511;28;19921;-62
2023/01/21 12:54:23;;;;;;;;;;;;;;;;;;4998874;28;20508;-63
2023/01/21 12:56:48;;;;;;;;;;;;;;;;;;4999871;28;20027;-64
2023/01/21 12:59:14;;;;;;;;;;;;;;;;;;4977644;28;19975;-63
2023/01/21 13:01:39;;;;;;;;;;;;;;;;;;4996849;28;20249;-63
2023/01/21 13:04:05;;;;;;;;;;;;;;;;;;4997814;28;19944;-62
2023/01/21 13:06:31;;;;;;;;;;;;;;;;;;5000415;28;19917;-61
2023/01/21 13:08:56;;;;;;;;;;;;;;;;;;4977990;28;19925;-61
2023/01/21 13:11:22;;;;;;;;;;;;;;;;;;5008399;28;19921;-62
2023/01/21 13:13:47;;;;;;;;;;;;;;;;;;4997387;28;19921;-62
2023/01/21 13:16:12;;;;;;;;;;;;;;;;;;4998592;28;20717;-63
2023/01/21 13:18:38;;;;;;;;;;;;;;;;;;4998249;28;19925;-62
2023/01/21 13:21:03;;;;;;;;;;;;;;;;;;4995179;28;20020;-62
2023/01/21 13:23:29;;;;;;;;;;;;;;;;;;4999057;28;20506;-62
2023/01/21 13:25:54;;;;;;;;;;;;;;;;;;5001337;28;19917;-61
2023/01/21 13:28:20;;;;;;;;;;;;;;;;;;4999908;28;19929;-62
2023/01/21 13:30:45;;;;;;;;;;;;;;;;;;4996607;28;19927;-61
2023/01/21 13:33:12;;;;;;;;;;;;;;;;;;5000301;28;19917;-62
2023/01/21 13:35:38;;;;;;;;;;;;;;;;;;4998725;28;19921;-62
2023/01/21 13:38:03;;;;;;;;;;;;;;;;;;4992863;28;20430;-62
2023/01/21 13:40:29;;;;;;;;;;;;;;;;;;4999518;28;19917;-61
2023/01/21 13:42:57;;;;;;;;;;;;;;;;;;4997874;28;20896;-62
2023/01/21 13:45:25;;;;;;;;;;;;;;;;;;4993631;28;19917;-63
2023/01/21 13:47:53;;;;;;;;;;;;;;;;;;5002447;28;19939;-63
2023/01/21 13:50:18;;;;;;;;;;;;;;;;;;4997874;28;19921;-63
2023/01/21 13:52:46;;;;;;;;;;;;;;;;;;4986627;28;20082;-62
2023/01/21 13:55:12;;;;;;;;;;;;;;;;;;4999814;28;19921;-62
2023/01/21 13:57:37;;;;;;;;;;;;;;;;;;5010010;28;20029;-63
2023/01/21 14:00:06;;;;;;;;;;;;;;;;;;4999535;28;20442;-62
2023/01/21 14:02:31;;;;;;;;;;;;;;;;;;4999263;28;19963;-62
2023/01/21 14:04:57;;;;;;;;;;;;;;;;;;4998382;28;19921;-62
2023/01/21 14:07:23;;;;;;;;;;;;;;;;;;4998264;28;20552;-62
2023/01/21 14:09:50;;;;;;;;;;;;;;;;;;4985606;28;19928;-63
2023/01/21 14:12:18;;;;;;;;;;;;;;;;;;4999509;28;19917;-63
2023/01/21 14:14:43;;;;;;;;;;;;;;;;;;5000555;28;20467;-62
2023/01/21 14:17:12;;;;;;;;;;;;;;;;;;4997711;28;19920;-62
2023/01/21 14:19:40;;;;;;;;;;;;;;;;;;4977347;28;21760;-62
2023/01/21 14:22:09;;;;;;;;;;;;;;;;;;4999135;28;20021;-62
2023/01/21 14:24:35;;;;;;;;;;;;;;;;;;4995459;28;19928;-62
2023/01/21 14:27:00;;;;;;;;;;;;;;;;;;4990847;28;19921;-61
2023/01/21 14:29:28;;;;;;;;;;;;;;;;;;4996806;28;19925;-62
2023/01/21 14:31:53;;;;;;;;;;;;;;;;;;4998662;28;20328;-62
2023/01/21 14:34:20;;;;;;;;;;;;;;;;;;5000894;28;21501;-63
2023/01/21 14:36:45;;;;;;;;;;;;;;;;;;4993818;28;19928;-62
2023/01/21 14:39:12;;;;;;;;;;;;;;;;;;4998757;28;19991;-62
2023/01/21 14:41:40;;;;;;;;;;;;;;;;;;4998798;28;19956;-62
2023/01/21 14:44:08;;;;;;;;;;;;;;;;;;5010728;28;20404;-62
2023/01/21 14:46:35;;;;;;;;;;;;;;;;;;4999341;28;19921;-62
2023/01/21 14:49:06;;;;;;;;;;;;;;;;;;5001008;28;20001;-62
2023/01/21 14:51:34;;;;;;;;;;;;;;;;;;5000205;28;19968;-62
2023/01/21 14:54:02;;;;;;;;;;;;;;;;;;4998074;28;19947;-63
2023/01/21 14:56:31;;;;;;;;;;;;;;;;;;4996569;28;19961;-63
2023/01/21 14:58:56;;;;;;;;;;;;;;;;;;5002893;28;21282;-62
2023/01/21 15:01:22;;;;;;;;;;;;;;;;;;5000546;28;19952;-62
2023/01/21 15:03:48;;;;;;;;;;;;;;;;;;5003827;28;19929;-63
2023/01/21 15:06:13;;;;;;;;;;;;;;;;;;4984118;28;19918;-61
2023/01/21 15:08:42;;;;;;;;;;;;;;;;;;5000202;28;20079;-62
2023/01/21 15:11:09;;;;;;;;;;;;;;;;;;4996070;28;19928;-62
2023/01/21 15:13:37;;;;;;;;;;;;;;;;;;5001797;28;20625;-61
2023/01/21 15:16:03;;;;;;;;;;;;;;;;;;5001124;28;22180;-63
2023/01/21 15:18:28;;;;;;;;;;;;;;;;;;5001173;28;19952;-62
2023/01/21 15:20:57;;;;;;;;;;;;;;;;;;5000031;28;19971;-62
2023/01/21 15:23:25;;;;;;;;;;;;;;;;;;4992576;28;20325;-61
2023/01/21 15:25:52;;;;;;;;;;;;;;;;;;4997784;28;19917;-61
2023/01/21 15:28:22;;;;;;;;;;;;;;;;;;4998649;28;19924;-61
2023/01/21 15:30:47;;;;;;;;;;;;;;;;;;4994598;28;20324;-61
2023/01/21 15:33:16;;;;;;;;;;;;;;;;;;5001877;28;20453;-62
2023/01/21 15:35:41;;;;;;;;;;;;;;;;;;4993308;28;20122;-61
2023/01/21 15:38:09;;;;;;;;;;;;;;;;;;4996354;28;20062;-62
2023/01/21 15:40:37;;;;;;;;;;;;;;;;;;4993070;28;20365;-62
2023/01/21 15:43:05;;;;;;;;;;;;;;;;;;4998647;28;19917;-61
2023/01/21 15:45:31;;;;;;;;;;;;;;;;;;4998740;28;20392;-61
2023/01/21 15:47:56;;;;;;;;;;;;;;;;;;4992728;28;19983;-61
2023/01/21 15:50:22;;;;;;;;;;;;;;;;;;4999687;28;20549;-61
2023/01/21 15:52:48;;;;;;;;;;;;;;;;;;5003884;28;20395;-62
2023/01/21 15:55:14;;;;;;;;;;;;;;;;;;5001900;28;19921;-61
2023/01/21 15:57:39;;;;;;;;;;;;;;;;;;4983785;28;20026;-62
2023/01/21 16:00:04;;;;;;;;;;;;;;;;;;5000589;28;20442;-60
2023/01/21 16:02:30;;;;;;;;;;;;;;;;;;4993374;28;20389;-60
2023/01/21 16:04:59;;;;;;;;;;;;;;;;;;4977005;28;19992;-62
2023/01/21 16:07:24;;;;;;;;;;;;;;;;;;4999845;28;19917;-61
2023/01/21 16:09:52;;;;;;;;;;;;;;;;;;5002783;28;19921;-61
2023/01/21 16:12:17;;;;;;;;;;;;;;;;;;4990505;28;19963;-61
2023/01/21 16:14:51;;;;;;;;;;;;;;;;;;4999530;28;19990;-61
2023/01/21 16:17:18;;;;;;;;;;;;;;;;;;4993851;28;20003;-61
2023/01/21 16:19:46;;;;;;;;;;;;;;;;;;4995239;28;19921;-61
2023/01/21 16:22:11;;;;;;;;;;;;;;;;;;5001420;28;20427;-61
2023/01/21 16:24:37;;;;;;;;;;;;;;;;;;4998862;28;19928;-61
2023/01/21 16:27:06;;;;;;;;;;;;;;;;;;4998643;28;19917;-61
2023/01/21 16:29:33;;;;;;;;;;;;;;;;;;4998655;28;19996;-61
2023/01/21 16:31:59;;;;;;;;;;;;;;;;;;4998767;28;19963;-61
2023/01/21 16:34:24;;;;;;;;;;;;;;;;;;5000570;28;20503;-61
2023/01/21 16:36:50;;;;;;;;;;;;;;;;;;5000502;28;20609;-62
2023/01/21 16:39:15;;;;;;;;;;;;;;;;;;5000169;28;19927;-62
2023/01/21 16:41:43;;;;;;;;;;;;;;;;;;4996283;28;19921;-61
2023/01/21 16:44:08;;;;;;;;;;;;;;;;;;4991052;28;21689;-61
2023/01/21 16:46:37;;;;;;;;;;;;;;;;;;4998316;28;19921;-61
2023/01/21 16:49:03;;;;;;;;;;;;;;;;;;5000201;28;19929;-61
2023/01/21 16:51:31;;;;;;;;;;;;;;;;;;4975129;28;19952;-61
2023/01/21 16:53:56;;;;;;;;;;;;;;;;;;4994207;28;20432;-61
2023/01/21 16:56:26;;;;;;;;;;;;;;;;;;4992591;28;19921;-61
2023/01/21 16:58:52;;;;;;;;;;;;;;;;;;4993177;28;20392;-60
2023/01/21 17:01:17;;;;;;;;;;;;;;;;;;4996249;28;19987;-61
2023/01/21 17:03:43;;;;;;;;;;;;;;;;;;5009169;28;19924;-61